2019-06-21T20:33:52+02:00 GET /shop/termek/curver-pedalos-szemetes-femhatasu-5-l/1083270 HTTP/1.1
2019-06-21T22:36:48+02:00 GET /shop/termek/curver-gorgos-szemetes-muanyag-110l-sargafekete/1569942 HTTP/1.1
2019-06-22T00:45:19+02:00 GET /shop/termek/curver-gorgos-szemetes-muanyag-110l-sargafekete/1569942 HTTP/1.1
2019-06-22T02:21:28+02:00 GET /shop/termek/karcher-13481160-wd-4-car-tobbfunkcios-porszivo/1605533 HTTP/1.1
2019-06-22T03:05:36+02:00 GET /shop/termek/curver-pedalos-szemetes-femhatasu-5-l/1083270 HTTP/1.1
2019-06-22T05:16:14+02:00 GET /shop/termek/philips-hr264240-viva-collection-promix-rudmixer/1689535 HTTP/1.1
2019-06-22T08:27:35+02:00 GET /shop/termek/curver-gorgos-szemetes-muanyag-110l-sargafekete/1569942 HTTP/1.1
2019-06-22T08:28:37+02:00 GET /shop/termek/levenhuk-skyline-travel-70/1691503 HTTP/1.1
2019-06-22T08:41:53+02:00 GET /shop/termek/levenhuk-zeno-vizor-g6-nagyitoszemuveg/1711609 HTTP/1.1
2019-06-22T08:45:16+02:00 GET /shop/termek/curver-gorgos-szemetes-muanyag-110l-sargafekete/1569942 HTTP/1.1
2019-06-22T09:18:24+02:00 GET /shop/termek/curver-pedalos-szemetes-femhatasu-5-l/1083270 HTTP/1.1
2019-06-22T10:14:08+02:00 GET /shop/termek/curver-gorgos-szemetes-muanyag-110l-kekfekete/1640387 HTTP/1.1
2019-06-22T00:45:19+02:00 GET /shop/termek/curver-gorgos-szemetes-muanyag-110l-sargafekete/1569942 HTTP/1.1
2019-06-22T02:21:28+02:00 GET /shop/termek/karcher-13481160-wd-4-car-tobbfunkcios-porszivo/1605533 HTTP/1.1
2019-06-22T03:05:36+02:00 GET /shop/termek/curver-pedalos-szemetes-femhatasu-5-l/1083270 HTTP/1.1
2019-06-24T08:39:40+02:00 GET /shop/termek/levenhuk-sherman-base-10x50-ketszemes-tavcso/1692391 HTTP/1.1
2019-06-24T08:43:54+02:00 GET /shop/termek/levenhuk-zeno-vizor-hr6-fejre-rogzitheto-toltheto-nagyito/1711636 HTTP/1.1
2019-06-24T08:45:01+02:00 GET /shop/termek/bresser-junior-40x640x-mikroszkop-piros/1692056 HTTP/1.1
2019-06-24T11:20:04+02:00 GET /shop/termek/curver-pedalos-szemetes-femhatasu-5-l/1083270 HTTP/1.1
2019-06-24T12:10:27+02:00 GET /shop/termek/curver-pedalos-szemetes-femhatasu-5-l/1083270 HTTP/1.1
2019-06-24T14:43:57+02:00 GET /shop/termek/philips-fc824109-powergo-porzsakos-porszivo-aaa-energiacimke-allergenszuro-3-l/1606142 HTTP/1.1
2019-06-24T17:09:36+02:00 GET /shop/termek/whitenergy-dell-latitude-e5500-07213/300040 HTTP/1.1
2019-06-24T18:12:07+02:00 GET /shop/termek/bosch-mum4427-konyhai-robotgep/1166693 HTTP/1.1
2019-06-24T19:08:20+02:00 GET /shop/termek/curver-pedalos-szemetes-femhatasu-5-l/1083270 HTTP/1.1
2019-06-25T04:59:36+02:00 GET /shop/termek/electrolux-ems21400s-mikrohullamu-suto/1166698 HTTP/1.1
2019-06-25T08:20:57+02:00 GET /shop/termek/levenhuk-1st-mikroszkop/1691877 HTTP/1.1
2019-06-25T08:26:39+02:00 GET /shop/termek/levenhuk-blaze-50f-base-figyelotavcso/1691937 HTTP/1.1
2019-06-25T13:05:36+02:00 GET /shop/termek/curver-gorgos-szemetes-muanyag-110l-kekfekete/1640387 HTTP/1.1
2019-06-25T13:35:32+02:00 GET /shop/termek/curver-pedalos-szemetes-femhatasu-5-l/1083270 HTTP/1.1
2019-06-25T13:44:43+02:00 GET /shop/termek/curver-pedalos-szemetes-femhatasu-5-l/1083270 HTTP/1.1
2019-06-25T13:47:25+02:00 GET /shop/termek/curver-pedalos-szemetes-femhatasu-5-l/1083270 HTTP/1.1
2019-06-25T15:07:52+02:00 GET /shop/termek/curver-pedalos-szemetes-femhatasu-5-l/1083270 HTTP/1.1
2019-06-25T15:41:23+02:00 GET /shop/termek/bosch-smi25as02e-mosogatogep/1545371 HTTP/1.1
2019-06-25T15:54:53+02:00 GET /shop/termek/curver-pedalos-szemetes-femhatasu-5-l/1083270 HTTP/1.1
2019-06-25T15:07:52+02:00 GET /shop/termek/curver-pedalos-szemetes-femhatasu-5-l/1083270 HTTP/1.1
2019-06-25T15:41:23+02:00 GET /shop/termek/bosch-smi25as02e-mosogatogep/1545371 HTTP/1.1
2019-06-25T15:54:53+02:00 GET /shop/termek/curver-pedalos-szemetes-femhatasu-5-l/1083270 HTTP/1.1
2019-06-25T17:39:37+02:00 GET /shop/termek/philips-bhd17700-drycare-pro-ionos-hajszarito/1688456 HTTP/1.1
2019-06-25T19:45:33+02:00 GET /shop/termek/neff-t16bd56n0-n-70-onalloan-beepitheto-elektromos-fozolap-touch-control-vezerlessel/1634647 HTTP/1.1
2019-06-25T20:03:28+02:00 GET /shop/termek/philips-hp655001-satinelle-essential-epilator/1531824 HTTP/1.1
2019-06-25T21:24:26+02:00 GET /shop/termek/curver-gorgos-szemetes-muanyag-110l-sargafekete/1569942 HTTP/1.1
2019-06-26T01:15:05+02:00 GET /shop/termek/bosch-muz5eb2-fagylaltkeszito-mum5hoz/1466721 HTTP/1.1
2019-06-26T01:22:38+02:00 GET /shop/termek/philips-ep531110-series-5000-automata-eszpresszogepek/1689158 HTTP/1.1
2019-06-26T02:49:45+02:00 GET /shop/termek/fieldmann-fzg-1003-hordozhato-grillsuto-termotaskaval/1428274 HTTP/1.1
2019-06-26T04:29:31+02:00 GET /shop/termek/philips-hx673237-healthy-white-electric-toothbrush/1456842 HTTP/1.1
2019-06-26T08:44:49+02:00 GET /shop/termek/philips-hp823300-hajszarito/1333160 HTTP/1.1
2019-06-26T09:21:34+02:00 GET /shop/termek/bresser-biolux-nv-20x1280x-mikroszkop/1698497 HTTP/1.1
2019-06-26T09:43:49+02:00 GET /shop/termek/bosch-hba534eb0-serie-4-beepitheto-suto-fekete/1644145 HTTP/1.1
2019-06-26T10:09:37+02:00 GET /shop/termek/philips-fc802204-4db-allergias-porzsak-basic-garancia/1709331 HTTP/1.1
2019-06-26T10:26:02+02:00 GET /shop/termek/philips-bhd02900-drycare-essential-energiahatekony-hajszarito/1528459 HTTP/1.1
2019-06-26T10:34:10+02:00 GET /shop/termek/philips-hx606610-sonicare-w-optimal-white-standard-sonic-fogkefefej/1705768 HTTP/1.1
2019-06-26T10:58:20+02:00 GET /shop/termek/karcher-63694810-kendoszett-5-db-basic-garancia/1597839 HTTP/1.1
2019-06-26T13:40:31+02:00 GET /shop/termek/bosch-bgc2u230-easy-porszivo/1466214 HTTP/1.1
2019-06-26T21:48:21+02:00 GET /shop/termek/fieldmann-fvc-2003ek-szennyvizszivattyu/1409017 HTTP/1.1
2019-06-26T22:11:56+02:00 GET /shop/termek/curver-billenos-szemetes-50-l-clickit-feher/786777 HTTP/1.1
2019-06-26T23:40:17+02:00 GET /shop/termek/philips-hp655001-satinelle-essential-epilator/1531824 HTTP/1.1
2019-06-27T00:34:30+02:00 GET /shop/termek/karcher-16734000-k-2-full-control-magasnyomasu-moso-basic-garancia/1597596 HTTP/1.1
2019-06-27T06:25:01+02:00 GET /shop/termek/philips-gc214520-easyspeed-plus-gozolos-vasalo-kek-basic-garancia/1709464 HTTP/1.1
2019-06-27T09:00:00+02:00 GET /shop/termek/levenhuk-rainbow-2l-plus-mikroszkop-lila/1691536 HTTP/1.1
2019-06-27T09:08:46+02:00 GET /shop/termek/levenhuk-blaze-50-base-figyelotavcso/1691923 HTTP/1.1
2019-06-27T09:42:18+02:00 GET /shop/termek/curver-billenos-szemetes-50-l-clickit-feher/786777 HTTP/1.1
2019-06-27T13:06:58+02:00 GET /shop/termek/curver-gorgos-szemetes-muanyag-110l-kekfekete/1640387 HTTP/1.1
2019-06-27T13:27:32+02:00 GET /shop/termek/philips-gc143330-gozolos-vasalo-basic-garancia/1712357 HTTP/1.1
2019-06-27T14:25:59+02:00 GET /shop/termek/philips-hp642300-satinelle-epilator-basic-garancia/1709635 HTTP/1.1
2019-06-27T18:20:43+02:00 GET /shop/termek/whitenergy-dell-latitude-d500-03971/299984 HTTP/1.1